Time;durP1;ratioP1;P1;durP2;ratioP2;P2;SDS_P1;SDS_P2;PMS_P1;PMS_P2;Temp;Humidity;BMP_temperature;BMP_pressure;BME280_temperature;BME280_humidity;BME280_pressure;Samples;Min_cycle;Max_cycle;Signal;HPM_P1;HPM_P2
2023/04/06 00:00:23;;;;;;;7.32;5.45;;;;;;;0.08;76.65;94381.28;5103146;28;20674;-74
2023/04/06 00:02:51;;;;;;;10.23;6.00;;;;;;;0.08;76.82;94378.63;5089303;28;20222;-74
2023/04/06 00:05:20;;;;;;;9.65;6.55;;;;;;;0.05;77.07;94381.81;5072828;28;20229;-75
2023/04/06 00:07:47;;;;;;;6.70;4.60;;;;;;;0.07;76.88;94374.34;5090901;28;20260;-76
2023/04/06 00:10:14;;;;;;;12.18;6.72;;;;;;;0.05;77.27;94371.16;5096477;28;20209;-75
2023/04/06 00:12:41;;;;;;;9.32;6.13;;;;;;;0.03;76.86;94362.63;5098272;28;20202;-75
2023/04/06 00:15:08;;;;;;;12.02;6.55;;;;;;;0.06;76.82;94368.22;5103294;28;20241;-75
2023/04/06 00:17:35;;;;;;;9.32;5.85;;;;;;;-0.06;76.92;94355.19;5100303;28;20198;-74
2023/04/06 00:20:02;;;;;;;10.15;5.82;;;;;;;0.02;76.76;94361.84;5096413;28;20271;-74
2023/04/06 00:22:31;;;;;;;11.00;6.18;;;;;;;-0.03;77.14;94364.53;5097766;28;20209;-75
2023/04/06 00:24:57;;;;;;;8.32;6.10;;;;;;;0.04;77.00;94359.72;5074921;28;20210;-73
2023/04/06 00:27:25;;;;;;;8.57;6.05;;;;;;;0.06;77.05;94357.56;5100709;28;20226;-74
2023/04/06 00:29:52;;;;;;;2.97;1.95;;;;;;;-0.05;77.46;94356.78;5089453;28;20282;-74
2023/04/06 00:32:18;;;;;;;3.00;1.83;;;;;;;0.00;77.19;94354.13;5089388;28;20289;-76
2023/04/06 00:34:45;;;;;;;6.30;3.08;;;;;;;-0.01;76.49;94351.75;5075739;28;20222;-75
2023/04/06 00:37:12;;;;;;;4.80;2.47;;;;;;;0.04;76.75;94342.94;5089313;28;20221;-75
2023/04/06 00:39:41;;;;;;;1.33;0.93;;;;;;;0.05;76.72;94350.66;5102922;28;20248;-77
2023/04/06 00:42:13;;;;;;;7.22;2.42;;;;;;;0.04;76.63;94348.25;5101146;28;20206;-75
2023/04/06 00:44:40;;;;;;;2.55;2.25;;;;;;;0.08;76.38;94349.31;5074572;28;20248;-75
2023/04/06 00:47:07;;;;;;;4.20;2.33;;;;;;;0.10;77.31;94331.22;5102182;28;20236;-75
2023/04/06 00:49:34;;;;;;;3.05;2.00;;;;;;;0.12;76.53;94334.41;5101748;28;20198;-75
2023/04/06 00:52:01;;;;;;;1.98;1.73;;;;;;;0.07;76.85;94342.41;5102345;28;20227;-75
2023/04/06 00:54:28;;;;;;;8.65;5.55;;;;;;;0.03;77.08;94336.00;5080828;28;20290;-75
2023/04/06 00:56:56;;;;;;;9.50;5.68;;;;;;;0.05;77.21;94328.56;5096405;28;20661;-74
2023/04/06 00:59:23;;;;;;;5.28;3.63;;;;;;;0.07;77.13;94342.41;5097825;28;20197;-77
2023/04/06 01:01:50;;;;;;;9.32;5.55;;;;;;;0.06;76.84;94335.47;5096796;28;20687;-74
2023/04/06 01:04:17;;;;;;;9.90;5.07;;;;;;;0.10;76.68;94336.53;5098594;28;20221;-76
2023/04/06 01:06:45;;;;;;;10.18;6.75;;;;;;;0.08;77.06;94333.34;5096490;28;20202;-76
2023/04/06 01:09:12;;;;;;;10.18;6.95;;;;;;;0.12;77.36;94334.41;5100344;28;20565;-74
2023/04/06 01:11:38;;;;;;;9.38;6.80;;;;;;;0.10;77.50;94332.03;5102065;28;20284;-75
2023/04/06 01:14:07;;;;;;;10.52;6.45;;;;;;;0.13;77.88;94328.81;5097270;28;20217;-75
2023/04/06 01:16:34;;;;;;;11.60;7.07;;;;;;;0.06;77.68;94330.16;5095312;28;20230;-74
2023/04/06 01:19:01;;;;;;;8.57;6.00;;;;;;;0.11;77.62;94324.84;5100195;28;20706;-74
2023/04/06 01:21:28;;;;;;;9.15;6.38;;;;;;;0.09;77.81;94324.28;5102278;28;20209;-74
2023/04/06 01:23:56;;;;;;;6.25;4.88;;;;;;;0.09;77.50;94319.78;5088318;28;20732;-75
2023/04/06 01:26:23;;;;;;;8.02;5.30;;;;;;;0.13;77.60;94318.16;5101848;28;20198;-77
2023/04/06 01:28:50;;;;;;;7.43;5.05;;;;;;;0.10;77.63;94310.72;5087718;28;20240;-74
2023/04/06 01:31:17;;;;;;;9.25;6.03;;;;;;;0.17;77.57;94318.41;5101530;28;20210;-75
2023/04/06 01:33:45;;;;;;;9.38;6.45;;;;;;;0.21;77.21;94316.81;5098929;28;20198;-75
2023/04/06 01:36:12;;;;;;;6.43;2.40;;;;;;;0.26;77.91;94316.81;5108551;28;20201;-75
2023/04/06 01:38:38;;;;;;;3.47;2.72;;;;;;;0.29;77.67;94318.91;5096922;28;20206;-75
2023/04/06 01:41:07;;;;;;;2.58;1.67;;;;;;;0.31;77.27;94311.44;5101444;28;20199;-73
2023/04/06 01:43:34;;;;;;;2.78;2.03;;;;;;;0.28;77.21;94322.63;5099616;28;20197;-75
2023/04/06 01:46:00;;;;;;;4.97;2.80;;;;;;;0.31;77.13;94314.09;5094685;28;20202;-75
2023/04/06 01:48:27;;;;;;;3.20;2.05;;;;;;;0.30;77.00;94315.19;5096980;27;20261;-74
2023/04/06 01:50:55;;;;;;;2.33;1.95;;;;;;;0.34;77.00;94305.59;5106577;28;20317;-74
2023/04/06 01:53:22;;;;;;;3.38;2.38;;;;;;;0.33;76.82;94306.66;5107964;28;20210;-75
2023/04/06 01:55:48;;;;;;;3.30;2.38;;;;;;;0.35;77.20;94302.66;5093756;28;20212;-75
2023/04/06 01:58:17;;;;;;;2.20;1.83;;;;;;;0.38;77.13;94301.31;5095227;28;20212;-75
2023/04/06 02:00:43;;;;;;;5.03;3.08;;;;;;;0.43;76.79;94308.47;5101886;28;20206;-76
2023/04/06 02:03:10;;;;;;;3.13;2.47;;;;;;;0.42;76.85;94301.53;5101046;28;20872;-76
2023/04/06 02:05:37;;;;;;;3.20;2.17;;;;;;;0.45;76.41;94296.47;5094429;28;20226;-76
2023/04/06 02:08:05;;;;;;;3.67;2.38;;;;;;;0.47;76.12;94298.88;5095046;28;20355;-73
2023/04/06 02:10:32;;;;;;;3.90;2.42;;;;;;;0.43;76.17;94298.63;5074314;28;20263;-76
2023/04/06 02:12:59;;;;;;;5.60;2.53;;;;;;;0.49;76.48;94296.75;5101331;28;20626;-76
2023/04/06 02:15:27;;;;;;;2.05;1.40;;;;;;;0.57;76.57;94299.63;5094424;28;20291;-75
2023/04/06 02:17:54;;;;;;;4.05;3.03;;;;;;;0.43;76.21;94287.97;5094201;28;20209;-73
2023/04/06 02:20:21;;;;;;;1.52;1.38;;;;;;;0.53;76.20;94309.25;5102754;28;20397;-76
2023/04/06 02:22:48;;;;;;;2.50;2.10;;;;;;;0.50;76.40;94298.34;5075016;28;20206;-76
2023/04/06 02:25:15;;;;;;;3.85;2.83;;;;;;;0.53;76.39;94295.94;5096055;28;20258;-76
2023/04/06 02:27:42;;;;;;;3.85;2.75;;;;;;;0.53;76.06;94298.59;5093511;28;20222;-76
2023/04/06 02:30:10;;;;;;;3.45;2.22;;;;;;;0.63;76.34;94309.22;5078803;28;20202;-75
2023/04/06 02:32:38;;;;;;;6.60;2.72;;;;;;;0.59;75.89;94297.50;5101578;28;20205;-75
2023/04/06 02:35:05;;;;;;;5.05;2.10;;;;;;;0.58;76.45;94306.56;5096779;28;20208;-74
2023/04/06 02:37:32;;;;;;;2.50;2.10;;;;;;;0.54;76.50;94305.53;5092990;28;20209;-74
2023/04/06 02:39:59;;;;;;;2.20;1.85;;;;;;;0.58;76.47;94289.75;5096654;28;20193;-74
2023/04/06 02:42:26;;;;;;;3.25;2.05;;;;;;;0.57;76.37;94294.28;5098264;28;20254;-74
2023/04/06 02:44:53;;;;;;;4.65;2.55;;;;;;;0.57;76.52;94294.28;5103340;28;20201;-75
2023/04/06 02:47:20;;;;;;;2.00;1.77;;;;;;;0.57;76.39;94294.28;5104766;28;20202;-74
2023/04/06 02:49:48;;;;;;;1.85;1.75;;;;;;;0.59;76.49;94291.34;5082509;28;20234;-74
2023/04/06 02:52:15;;;;;;;7.95;3.60;;;;;;;0.48;76.80;94279.97;5100935;28;20197;-78
2023/04/06 02:54:41;;;;;;;3.08;2.15;;;;;;;0.48;76.52;94290.63;5100517;28;20227;-75
2023/04/06 02:57:09;;;;;;;3.15;2.20;;;;;;;0.50;76.67;94280.47;5092393;28;20215;-75
2023/04/06 02:59:35;;;;;;;3.20;2.47;;;;;;;0.49;76.45;94286.88;5090538;28;20204;-75
2023/04/06 03:02:02;;;;;;;3.97;2.60;;;;;;;0.48;76.42;94287.94;5097191;28;20557;-76
2023/04/06 03:04:29;;;;;;;9.02;3.50;;;;;;;0.43;76.42;94282.63;5100350;28;20230;-75
2023/04/06 03:06:57;;;;;;;9.10;3.53;;;;;;;0.48;76.55;94285.28;5074131;28;20203;-75
2023/04/06 03:09:24;;;;;;;3.17;2.10;;;;;;;0.48;77.25;94282.63;5090698;28;20221;-75
2023/04/06 03:11:51;;;;;;;3.42;2.58;;;;;;;0.46;76.72;94292.75;5097482;28;20198;-75
2023/04/06 03:14:21;;;;;;;2.10;1.90;;;;;;;0.43;77.11;94282.63;5100830;28;20226;-74
2023/04/06 03:16:48;;;;;;;3.83;2.20;;;;;;;0.37;76.88;94283.72;5094627;28;20252;-73
2023/04/06 03:19:15;;;;;;;4.32;2.58;;;;;;;0.35;77.14;94283.22;5099372;28;20220;-75
2023/04/06 03:21:42;;;;;;;3.80;2.58;;;;;;;0.41;77.40;94290.09;5094909;28;20758;-75
2023/04/06 03:24:10;;;;;;;5.78;3.22;;;;;;;0.39;77.34;94276.28;5098917;28;20232;-74
2023/04/06 03:26:37;;;;;;;4.78;2.78;;;;;;;0.46;77.11;94276.75;5104324;28;20281;-75
2023/04/06 03:29:04;;;;;;;6.05;3.38;;;;;;;0.46;77.32;94282.09;5079953;28;20245;-73
2023/04/06 03:31:31;;;;;;;5.50;3.33;;;;;;;0.50;76.69;94277.03;5104371;28;20203;-79
2023/04/06 03:33:58;;;;;;;3.50;2.53;;;;;;;0.51;76.46;94275.94;5090124;28;20202;-73
2023/04/06 03:36:26;;;;;;;4.85;3.35;;;;;;;0.38;76.54;94274.69;5070990;28;20314;-75
2023/04/06 03:38:53;;;;;;;1.83;1.17;;;;;;;0.55;76.73;94277.78;5096062;28;20236;-76
2023/04/06 03:41:21;;;;;;;4.20;2.85;;;;;;;0.54;76.69;94289.53;5084211;28;20195;-74
2023/04/06 03:43:48;;;;;;;2.72;1.90;;;;;;;0.48;76.65;94287.94;5096452;28;20198;-76
2023/04/06 03:46:15;;;;;;;3.67;2.75;;;;;;;0.43;76.71;94289.81;5103941;28;20198;-74
2023/04/06 03:48:42;;;;;;;2.70;1.65;;;;;;;0.47;76.89;94286.34;5103890;28;20240;-75
2023/04/06 03:51:09;;;;;;;3.20;1.73;;;;;;;0.56;76.91;94290.03;5102736;28;20217;-75
2023/04/06 03:53:36;;;;;;;3.13;2.00;;;;;;;0.52;76.65;94278.34;5091060;28;20294;-75
2023/04/06 03:56:04;;;;;;;3.38;2.03;;;;;;;0.53;76.48;94287.13;5110497;28;20202;-74
2023/04/06 03:58:32;;;;;;;4.53;2.55;;;;;;;0.51;76.09;94279.41;5095429;28;20202;-73
2023/04/06 04:00:59;;;;;;;3.58;1.88;;;;;;;0.60;75.98;94280.44;5085374;28;20560;-79
2023/04/06 04:03:27;;;;;;;4.30;2.53;;;;;;;0.57;75.58;94264.97;5096487;28;20207;-76
2023/04/06 04:05:54;;;;;;;4.00;2.13;;;;;;;0.56;76.11;94287.38;5102194;28;20209;-75
2023/04/06 04:08:21;;;;;;;9.43;3.70;;;;;;;0.61;75.74;94282.03;5103244;28;20711;-75
2023/04/06 04:10:48;;;;;;;2.65;1.90;;;;;;;0.62;75.88;94291.63;5088492;28;20589;-75
2023/04/06 04:13:15;;;;;;;2.72;1.85;;;;;;;0.64;75.43;94289.47;5090876;28;20202;-75
2023/04/06 04:15:43;;;;;;;3.13;2.10;;;;;;;0.71;75.42;94283.84;5107198;28;20233;-73
2023/04/06 04:18:10;;;;;;;3.00;2.03;;;;;;;0.75;75.56;94284.09;5088478;28;20217;-74
2023/04/06 04:20:37;;;;;;;6.18;2.92;;;;;;;0.78;75.24;94278.22;5085206;28;20198;-76
2023/04/06 04:23:04;;;;;;;2.85;1.88;;;;;;;0.82;75.29;94287.28;5089122;28;20206;-75
2023/04/06 04:25:31;;;;;;;3.85;2.83;;;;;;;0.79;75.32;94295.81;5082840;28;20258;-75
2023/04/06 04:27:58;;;;;;;6.38;2.97;;;;;;;0.84;75.18;94288.56;5084410;28;20217;-75
2023/04/06 04:30:24;;;;;;;4.85;2.20;;;;;;;0.91;74.91;94302.41;5082808;28;20195;-76
2023/04/06 04:32:53;;;;;;;2.40;1.65;;;;;;;0.92;74.46;94295.22;5078880;28;20210;-77
2023/04/06 04:35:20;;;;;;;3.38;1.90;;;;;;;0.96;74.63;94297.03;5098611;28;20515;-76
2023/04/06 04:37:47;;;;;;;3.78;2.42;;;;;;;0.98;74.54;94296.75;5103411;28;20285;-78
2023/04/06 04:40:13;;;;;;;2.58;1.70;;;;;;;0.97;74.45;94303.16;5099346;28;20198;-76
2023/04/06 04:42:40;;;;;;;2.47;1.50;;;;;;;1.14;74.60;94303.59;5095667;28;20202;-76
2023/04/06 04:45:08;;;;;;;2.45;1.73;;;;;;;1.22;73.64;94299.56;5097499;28;20209;-76
2023/04/06 04:47:34;;;;;;;7.35;4.35;;;;;;;1.16;74.26;94288.13;5103019;28;20230;-76
2023/04/06 04:50:03;;;;;;;2.72;1.95;;;;;;;1.20;73.75;94291.84;5100542;28;20225;-74
2023/04/06 04:52:30;;;;;;;3.92;2.17;;;;;;;1.20;73.66;94297.16;5085098;28;20585;-76
2023/04/06 04:54:56;;;;;;;2.97;2.05;;;;;;;1.26;73.46;94290.72;5093697;28;20201;-76
2023/04/06 04:57:23;;;;;;;2.35;1.83;;;;;;;1.43;73.45;94291.13;5095879;28;20200;-76
2023/04/06 04:59:50;;;;;;;4.38;2.75;;;;;;;1.38;73.83;94288.47;5097029;28;20202;-74
2023/04/06 05:02:17;;;;;;;2.60;1.77;;;;;;;1.49;73.22;94291.09;5102119;28;20226;-76
2023/04/06 05:04:44;;;;;;;3.33;2.15;;;;;;;1.51;73.16;94283.56;5076128;28;20235;-76
2023/04/06 05:07:12;;;;;;;5.18;2.53;;;;;;;1.51;72.85;94291.59;5101425;28;20206;-75
2023/04/06 05:09:39;;;;;;;3.75;2.15;;;;;;;1.64;72.13;94291.75;5100982;28;20233;-74
2023/04/06 05:12:06;;;;;;;4.35;2.45;;;;;;;1.62;72.38;94282.44;5095114;28;20202;-75
2023/04/06 05:14:34;;;;;;;2.70;2.03;;;;;;;1.67;72.21;94282.38;5094834;28;20624;-74
2023/04/06 05:17:00;;;;;;;4.88;2.83;;;;;;;1.60;72.62;94284.59;5100939;28;20237;-76
2023/04/06 05:19:27;;;;;;;5.68;3.40;;;;;;;1.74;71.87;94282.88;5101030;28;20202;-76
2023/04/06 05:21:54;;;;;;;6.80;2.90;;;;;;;1.88;71.94;94291.81;5081293;28;20202;-75
2023/04/06 05:24:23;;;;;;;5.68;3.17;;;;;;;2.17;71.96;94288.34;5094690;28;20202;-75
2023/04/06 05:26:50;;;;;;;4.35;2.80;;;;;;;2.10;71.21;94292.13;5081052;28;20215;-75
2023/04/06 05:29:17;;;;;;;3.85;2.50;;;;;;;1.87;71.03;94300.91;5081369;28;20255;-78
2023/04/06 05:31:44;;;;;;;3.67;2.78;;;;;;;1.66;72.17;94288.78;5095577;28;20834;-75
2023/04/06 05:34:12;;;;;;;2.33;1.92;;;;;;;1.85;72.38;94292.38;5094053;28;20210;-76
2023/04/06 05:36:40;;;;;;;3.70;2.90;;;;;;;1.92;71.92;94297.38;5100499;28;20205;-75
2023/04/06 05:39:06;;;;;;;3.05;1.42;;;;;;;1.87;72.12;94289.44;5100571;28;20207;-76
2023/04/06 05:41:35;;;;;;;3.13;2.05;;;;;;;1.81;72.12;94286.00;5096188;28;20233;-75
2023/04/06 05:44:02;;;;;;;3.95;2.72;;;;;;;1.82;72.29;94292.94;5094476;28;20210;-78
2023/04/06 05:46:29;;;;;;;8.40;4.30;;;;;;;1.96;72.61;94288.53;5099408;28;20198;-76
2023/04/06 05:48:55;;;;;;;6.28;2.00;;;;;;;2.09;72.11;94285.19;5101511;28;20225;-75
2023/04/06 05:51:22;;;;;;;2.85;1.98;;;;;;;2.13;71.65;94288.91;5078772;28;20294;-77
2023/04/06 05:53:49;;;;;;;6.70;3.83;;;;;;;1.98;72.08;94283.69;5097039;28;20795;-75
2023/04/06 05:56:16;;;;;;;4.75;2.63;;;;;;;1.80;72.48;94284.41;5096818;28;20212;-75
2023/04/06 05:58:44;;;;;;;5.47;2.72;;;;;;;2.02;72.29;94281.28;5096068;28;20206;-74
2023/04/06 06:01:11;;;;;;;2.67;2.20;;;;;;;2.28;72.08;94284.47;5105886;28;20229;-77
2023/04/06 06:03:38;;;;;;;4.95;3.17;;;;;;;2.36;71.61;94291.84;5091192;28;20727;-76
2023/04/06 06:06:06;;;;;;;4.50;2.90;;;;;;;2.23;72.10;94273.81;5102832;28;20213;-77
2023/04/06 06:08:32;;;;;;;6.75;2.42;;;;;;;2.26;71.65;94276.75;5109405;28;21085;-78
2023/04/06 06:10:59;;;;;;;3.65;2.83;;;;;;;2.62;70.98;94274.44;5104605;28;20493;-78
2023/04/06 06:13:27;;;;;;;7.43;3.13;;;;;;;2.71;71.39;94272.75;5093766;28;20255;-80
2023/04/06 06:15:55;;;;;;;4.57;2.75;;;;;;;3.10;70.05;94266.31;5098988;28;20241;-75
2023/04/06 06:18:22;;;;;;;7.10;3.58;;;;;;;2.50;71.10;94276.72;5098514;27;20207;-76
2023/04/06 06:20:48;;;;;;;5.97;2.45;;;;;;;2.50;71.14;94276.72;5101576;28;20940;-75
2023/04/06 06:23:15;;;;;;;4.75;2.40;;;;;;;2.66;71.14;94269.31;5088113;28;20206;-79
2023/04/06 06:25:42;;;;;;;4.13;2.97;;;;;;;2.99;70.32;94276.38;5094172;28;20198;-76
2023/04/06 06:28:09;;;;;;;5.55;1.67;;;;;;;3.58;68.05;94270.38;5106629;28;20209;-76
2023/04/06 06:30:36;;;;;;;5.85;3.30;;;;;;;3.84;67.91;94267.28;5102440;28;20735;-78
2023/04/06 06:33:04;;;;;;;5.45;3.47;;;;;;;3.77;67.06;94266.88;5098038;28;20561;-78
2023/04/06 06:35:31;;;;;;;2.20;1.55;;;;;;;4.47;65.94;94253.28;5099813;28;20217;-77
2023/04/06 06:37:58;;;;;;;3.33;2.42;;;;;;;4.83;64.21;94256.81;5105036;28;20198;-76
2023/04/06 06:40:25;;;;;;;3.40;2.28;;;;;;;5.08;63.53;94262.75;5091146;28;20241;-75
2023/04/06 06:42:52;;;;;;;3.70;2.85;;;;;;;4.53;65.16;94255.56;5104700;28;20198;-76
2023/04/06 06:45:20;;;;;;;3.95;3.05;;;;;;;4.15;65.32;94257.63;5103532;28;20194;-75
2023/04/06 06:47:47;;;;;;;3.42;3.13;;;;;;;3.89;66.17;94267.22;5105859;28;20228;-77
2023/04/06 06:50:15;;;;;;;4.75;3.17;;;;;;;4.63;65.00;94268.00;5103997;28;20233;-75
2023/04/06 06:52:42;;;;;;;5.53;3.00;;;;;;;5.22;62.88;94274.25;5091166;28;20199;-75
2023/04/06 06:55:10;;;;;;;4.22;2.58;;;;;;;4.55;64.33;94266.00;5090226;28;20198;-79
2023/04/06 06:57:38;;;;;;;6.03;3.25;;;;;;;5.21;63.18;94267.28;5090441;28;20191;-77
2023/04/06 07:00:07;;;;;;;6.68;3.78;;;;;;;5.37;62.55;94263.16;5090303;28;20205;-76
2023/04/06 07:02:36;;;;;;;5.93;3.38;;;;;;;4.93;62.98;94253.91;5087846;28;20234;-76
2023/04/06 07:05:03;;;;;;;10.77;3.63;;;;;;;4.97;62.82;94249.56;5087086;28;20234;-77
2023/04/06 07:07:32;;;;;;;5.90;3.90;;;;;;;4.18;65.04;94262.41;5089033;28;20205;-85
2023/04/06 07:09:59;;;;;;;5.88;2.97;;;;;;;4.96;63.08;94245.28;5090544;28;20229;-78
2023/04/06 07:12:26;;;;;;;2.45;2.20;;;;;;;6.42;59.70;94253.56;5088137;28;20284;-78
2023/04/06 07:14:53;;;;;;;7.28;3.00;;;;;;;6.71;58.24;94239.56;5104156;28;20197;-75
2023/04/06 07:17:20;;;;;;;6.28;4.45;;;;;;;5.68;61.28;94247.91;5098137;28;20193;-77
2023/04/06 07:19:47;;;;;;;9.23;3.78;;;;;;;5.84;61.60;94244.88;5095719;28;20203;-83
2023/04/06 07:22:14;;;;;;;3.40;2.70;;;;;;;5.58;60.61;94256.22;5098017;28;20205;-77
2023/04/06 07:24:42;;;;;;;5.63;3.45;;;;;;;5.67;60.84;94243.66;5091086;28;20222;-76
2023/04/06 07:27:09;;;;;;;7.38;3.78;;;;;;;5.76;60.34;94241.00;5069678;28;20213;-81
2023/04/06 07:29:36;;;;;;;5.50;3.40;;;;;;;5.63;61.59;94248.03;5100155;28;20221;-74
2023/04/06 07:32:03;;;;;;;6.18;3.45;;;;;;;6.00;60.27;94246.09;5099566;28;20686;-76
2023/04/06 07:34:29;;;;;;;10.45;5.10;;;;;;;6.69;57.93;94251.78;5079540;28;20208;-74
2023/04/06 07:36:56;;;;;;;4.97;2.83;;;;;;;6.46;58.17;94242.97;5099056;28;20202;-75
2023/04/06 07:39:23;;;;;;;7.57;4.25;;;;;;;5.10;61.71;94253.28;5103518;28;20206;-77
2023/04/06 07:41:51;;;;;;;5.97;3.67;;;;;;;4.85;62.83;94243.13;5100636;28;20546;-77
2023/04/06 07:44:18;;;;;;;6.82;3.53;;;;;;;4.73;62.48;94246.31;5096204;28;20202;-74
2023/04/06 07:46:45;;;;;;;5.35;3.45;;;;;;;5.25;62.88;94241.41;5099350;28;20301;-74
2023/04/06 07:49:12;;;;;;;4.68;2.65;;;;;;;4.85;62.40;94243.13;5100483;28;20304;-78
2023/04/06 07:51:39;;;;;;;4.28;2.88;;;;;;;4.50;64.83;94250.00;5091873;28;20635;-76
2023/04/06 07:54:06;;;;;;;4.55;3.15;;;;;;;4.62;65.04;94244.94;5100682;28;20225;-74
2023/04/06 07:56:33;;;;;;;8.15;3.55;;;;;;;4.63;65.06;94251.91;5098309;28;20225;-79
2023/04/06 07:59:02;;;;;;;8.60;3.65;;;;;;;4.31;65.59;94244.75;5089077;28;20206;-74
2023/04/06 08:01:30;;;;;;;7.32;3.55;;;;;;;4.73;65.88;94243.63;5100885;28;20222;-74
2023/04/06 08:03:56;;;;;;;8.80;4.63;;;;;;;4.75;65.88;94254.06;5102501;28;20295;-74
2023/04/06 08:06:23;;;;;;;8.38;3.72;;;;;;;4.70;65.49;94252.28;5094201;28;20195;-74
2023/04/06 08:08:50;;;;;;;6.15;4.35;;;;;;;4.62;66.21;94239.56;5102511;28;20202;-75
2023/04/06 08:11:17;;;;;;;5.45;3.22;;;;;;;3.90;67.27;94239.34;5088990;28;20202;-81
2023/04/06 08:13:44;;;;;;;9.65;4.03;;;;;;;4.66;65.01;94235.19;5085934;28;20208;-75
2023/04/06 08:16:13;;;;;;;6.60;3.08;;;;;;;5.11;64.34;94235.31;5102109;28;20244;-76
2023/04/06 08:18:39;;;;;;;6.78;2.92;;;;;;;5.59;64.37;94239.03;5103118;28;20202;-75
2023/04/06 08:21:06;;;;;;;6.72;3.80;;;;;;;5.14;64.41;94245.44;5102649;28;20212;-75
2023/04/06 08:23:33;;;;;;;8.40;4.43;;;;;;;4.97;65.28;94246.88;5082115;28;20206;-75
2023/04/06 08:26:00;;;;;;;8.52;4.32;;;;;;;5.08;64.93;94252.00;5096144;28;20250;-75
2023/04/06 08:28:27;;;;;;;6.57;4.10;;;;;;;5.34;64.61;94244.97;5096593;28;20202;-73
2023/04/06 08:30:54;;;;;;;4.53;2.40;;;;;;;6.10;61.42;94243.16;5105288;28;20316;-74
2023/04/06 08:33:22;;;;;;;5.88;3.42;;;;;;;5.67;62.31;94238.28;5088387;28;20198;-73
2023/04/06 08:35:49;;;;;;;4.65;2.75;;;;;;;5.38;62.15;94256.69;5097578;28;20194;-76
2023/04/06 08:38:16;;;;;;;3.28;2.75;;;;;;;4.91;61.57;94231.19;5087739;28;20667;-75
2023/04/06 08:40:44;;;;;;;6.50;4.15;;;;;;;4.40;63.74;94242.16;5089429;28;20206;-77
2023/04/06 08:43:18;;;;;;;3.95;2.63;;;;;;;5.51;62.11;94245.09;5100119;28;20201;-74
2023/04/06 08:45:45;;;;;;;3.80;2.70;;;;;;;6.05;60.42;94245.94;5091207;28;20190;-77
2023/04/06 08:48:13;;;;;;;4.13;2.67;;;;;;;5.00;60.61;94257.00;5087616;28;20202;-73
2023/04/06 08:50:41;;;;;;;5.70;2.67;;;;;;;5.17;60.00;94244.84;5089460;28;20229;-76
2023/04/06 08:53:09;;;;;;;7.43;2.08;;;;;;;5.77;58.92;94241.78;5097921;28;20203;-74
2023/04/06 08:55:36;;;;;;;3.85;2.63;;;;;;;5.35;59.82;94235.81;5090149;28;20198;-75
2023/04/06 09:00:48;;;;;;;7.18;3.15;;;;;;;5.50;60.01;94237.34;5088269;28;20230;-76
2023/04/06 09:03:16;;;;;;;6.15;2.95;;;;;;;5.29;60.56;94237.84;5070222;28;20585;-73
2023/04/06 09:05:47;;;;;;;4.93;3.40;;;;;;;4.96;61.44;94245.28;5081783;28;20195;-75
2023/04/06 09:08:15;;;;;;;7.13;1.88;;;;;;;5.23;61.30;94235.56;5085653;28;20244;-74
2023/04/06 09:10:45;;;;;;;6.00;3.03;;;;;;;5.69;60.71;94229.91;5099199;28;20233;-74
2023/04/06 09:13:12;;;;;;;5.03;2.65;;;;;;;5.35;60.50;94235.81;5100389;28;20194;-76
2023/04/06 09:15:39;;;;;;;4.85;3.15;;;;;;;5.63;61.00;94241.88;5085325;28;20222;-74
2023/04/06 09:18:07;;;;;;;6.15;3.78;;;;;;;5.46;59.72;94242.56;5089130;28;20611;-76
2023/04/06 09:20:34;;;;;;;4.50;2.85;;;;;;;5.56;60.05;94230.75;5086524;28;20214;-74
2023/04/06 09:23:05;;;;;;;3.80;2.60;;;;;;;6.24;60.59;94233.09;5087136;28;20191;-74
2023/04/06 09:25:32;;;;;;;2.03;1.67;;;;;;;6.08;60.00;94223.84;5086410;28;20194;-75
2023/04/06 09:28:02;;;;;;;4.18;2.58;;;;;;;6.18;59.48;94220.06;5085960;28;20663;-73
2023/04/06 09:30:29;;;;;;;12.30;6.45;;;;;;;5.74;60.37;94237.81;5080425;28;20226;-74
2023/04/06 09:32:58;;;;;;;5.00;3.45;;;;;;;5.94;60.77;94236.56;5100932;28;20628;-73
2023/04/06 09:35:27;;;;;;;4.53;3.08;;;;;;;6.03;60.31;94245.47;5086554;28;20190;-73
2023/04/06 09:37:55;;;;;;;4.57;2.78;;;;;;;5.96;59.27;94237.84;5080476;28;20203;-73
2023/04/06 09:40:24;;;;;;;5.30;2.72;;;;;;;6.03;59.67;94234.72;5086136;28;20289;-74
2023/04/06 09:42:54;;;;;;;5.13;2.83;;;;;;;6.20;59.62;94234.81;5099616;28;20202;-74
2023/04/06 09:45:21;;;;;;;3.90;2.67;;;;;;;5.89;58.81;94240.16;5087005;28;20224;-74
2023/04/06 09:47:49;;;;;;;8.15;3.42;;;;;;;6.16;58.10;94227.66;5081235;28;20233;-77
2023/04/06 09:50:17;;;;;;;4.30;2.47;;;;;;;6.36;58.57;94233.28;5091628;28;20704;-75
2023/04/06 09:52:54;;;;;;;6.47;4.22;;;;;;;6.85;56.69;94236.75;5100153;28;20202;-75
2023/04/06 09:55:27;;;;;;;6.32;3.95;;;;;;;7.38;54.98;94230.34;5100673;28;20193;-73
2023/04/06 09:58:06;;;;;;;6.47;3.40;;;;;;;7.64;53.94;94228.44;5096254;28;20201;-75
2023/04/06 10:00:41;;;;;;;4.60;2.88;;;;;;;7.58;53.50;94229.69;5084510;28;20223;-75
2023/04/06 10:03:16;;;;;;;4.25;2.83;;;;;;;6.42;55.13;94237.41;5092000;28;20324;-80
2023/04/06 10:05:48;;;;;;;7.80;3.58;;;;;;;5.99;56.42;94245.31;5081740;28;20208;-76
2023/04/06 10:08:16;;;;;;;4.80;3.67;;;;;;;6.46;56.41;94239.50;5093284;28;20210;-75
2023/04/06 10:10:44;;;;;;;4.63;3.30;;;;;;;7.48;54.34;94235.41;5098970;28;20797;-76
2023/04/06 10:13:12;;;;;;;9.18;3.10;;;;;;;7.50;53.46;94233.19;5100196;28;20207;-74
2023/04/06 10:15:40;;;;;;;4.05;3.15;;;;;;;6.73;54.90;94225.81;5095497;28;20280;-75
2023/04/06 10:18:08;;;;;;;4.85;3.55;;;;;;;6.65;54.91;94240.03;5090086;28;20222;-74
2023/04/06 10:20:40;;;;;;;5.13;3.50;;;;;;;6.50;55.41;94235.09;5087761;28;20229;-77
2023/04/06 10:23:14;;;;;;;2.85;2.05;;;;;;;7.13;55.80;94234.59;5097284;28;20202;-75
2023/04/06 10:25:41;;;;;;;6.45;3.72;;;;;;;7.23;53.41;94231.63;5089452;28;20789;-74
2023/04/06 10:28:10;;;;;;;3.72;2.55;;;;;;;6.88;53.18;94217.28;5093538;28;20212;-76
2023/04/06 10:30:43;;;;;;;5.88;3.63;;;;;;;6.99;55.22;94223.97;5095340;28;20222;-73
2023/04/06 10:33:16;;;;;;;6.07;3.50;;;;;;;6.82;54.02;94213.19;5093014;28;20212;-75
2023/04/06 10:35:43;;;;;;;9.48;3.65;;;;;;;7.15;54.79;94210.84;5107912;28;20210;-74
2023/04/06 10:38:11;;;;;;;4.68;3.10;;;;;;;6.81;53.81;94206.22;5100534;28;20198;-78
2023/04/06 10:40:39;;;;;;;4.60;2.75;;;;;;;6.61;55.48;94212.97;5100814;28;20595;-76
2023/04/06 10:43:12;;;;;;;5.28;3.30;;;;;;;6.77;54.93;94216.00;5094681;28;20213;-74
2023/04/06 10:45:39;;;;;;;5.88;3.80;;;;;;;6.53;54.11;94221.03;5093651;28;20328;-76
2023/04/06 10:48:16;;;;;;;5.80;4.32;;;;;;;7.08;54.79;94207.84;5098493;28;20203;-74
2023/04/06 10:50:43;;;;;;;8.45;3.78;;;;;;;5.68;55.33;94213.00;5100616;28;20234;-79
2023/04/06 10:53:10;;;;;;;5.60;3.60;;;;;;;5.87;57.43;94222.75;5097017;28;20205;-78
2023/04/06 10:55:40;;;;;;;5.38;3.35;;;;;;;6.59;55.72;94209.00;5093705;28;20206;-75
2023/04/06 10:58:08;;;;;;;6.18;3.58;;;;;;;5.94;57.22;94225.81;5096110;28;20581;-75
2023/04/06 11:00:44;;;;;;;6.50;3.13;;;;;;;5.97;57.05;94219.81;5100017;28;20231;-73
2023/04/06 11:03:11;;;;;;;3.58;2.80;;;;;;;6.18;57.41;94210.13;5103028;28;20228;-73
2023/04/06 11:05:38;;;;;;;5.13;3.13;;;;;;;5.78;57.35;94208.44;5091410;28;20209;-78
2023/04/06 11:08:05;;;;;;;4.45;2.42;;;;;;;6.25;58.52;94209.69;5103172;28;20205;-75
2023/04/06 11:10:32;;;;;;;6.43;3.47;;;;;;;6.32;56.80;94200.03;5097090;28;20241;-75
2023/04/06 11:12:58;;;;;;;4.90;3.63;;;;;;;6.18;55.91;94209.31;5110638;28;20202;-74
2023/04/06 11:15:25;;;;;;;9.15;2.88;;;;;;;5.94;56.83;94207.00;5097156;28;20248;-76
2023/04/06 11:17:54;;;;;;;6.20;3.70;;;;;;;5.56;56.95;94193.94;5097180;28;20206;-76
2023/04/06 11:20:20;;;;;;;5.32;3.60;;;;;;;5.71;57.67;94196.25;5097534;28;20210;-80
2023/04/06 11:22:52;;;;;;;3.95;2.55;;;;;;;5.76;56.60;94186.47;5096011;28;20637;-76
2023/04/06 11:25:19;;;;;;;4.95;2.97;;;;;;;6.02;55.42;94190.09;5086150;28;20198;-78
2023/04/06 11:27:47;;;;;;;5.75;3.15;;;;;;;5.60;56.63;94194.91;5110628;28;20770;-76
2023/04/06 11:30:14;;;;;;;4.82;2.58;;;;;;;5.90;57.19;94189.88;5106877;28;20213;-76
2023/04/06 11:32:43;;;;;;;7.07;3.60;;;;;;;6.05;56.84;94200.25;5096743;28;20298;-80
2023/04/06 11:35:20;;;;;;;2.72;2.10;;;;;;;5.48;58.01;94186.63;5101973;28;20757;-78
2023/04/06 11:37:47;;;;;;;4.88;3.35;;;;;;;5.97;57.63;94184.88;5104060;28;20202;-74
2023/04/06 11:40:14;;;;;;;6.63;4.32;;;;;;;6.22;56.47;94192.25;5089832;28;20198;-75
2023/04/06 11:42:41;;;;;;;4.68;3.17;;;;;;;5.63;56.90;94188.94;5104012;28;20704;-79
2023/04/06 11:45:08;;;;;;;6.18;3.97;;;;;;;5.44;57.43;94185.66;5100833;28;20197;-75